Time;durP1;ratioP1;P1;durP2;ratioP2;P2;SDS_P1;SDS_P2;PMS_P1;PMS_P2;Temp;Humidity;BMP_temperature;BMP_pressure;BME280_temperature;BME280_humidity;BME280_pressure;Samples;Min_cycle;Max_cycle;Signal;HPM_P1;HPM_P2
2022/03/25 00:01:16;;;;;;;7.03;4.22;;;;;;;3.08;81.80;100380.67;1757169;82;21436;-56
2022/03/25 00:03:46;;;;;;;6.42;4.45;;;;;;;3.11;81.93;100384.43;1757418;82;21396;-57
2022/03/25 00:06:15;;;;;;;7.12;4.70;;;;;;;3.12;81.89;100382.07;1740489;82;21438;-58
2022/03/25 00:08:44;;;;;;;6.55;4.62;;;;;;;3.13;82.02;100379.72;1765265;81;21059;-56
2022/03/25 00:11:14;;;;;;;6.22;4.60;;;;;;;3.14;81.94;100389.54;1757208;81;21053;-57
2022/03/25 00:13:44;;;;;;;7.33;4.53;;;;;;;3.14;81.98;100382.27;1757354;82;21027;-56
2022/03/25 00:16:14;;;;;;;7.10;4.47;;;;;;;3.17;81.96;100380.62;1757361;82;21030;-56
2022/03/25 00:18:45;;;;;;;6.95;4.67;;;;;;;3.18;81.81;100380.11;1757143;82;21400;-57
2022/03/25 00:21:14;;;;;;;7.05;4.72;;;;;;;3.14;81.66;100384.98;1757161;82;20975;-58
2022/03/25 00:23:43;;;;;;;6.72;4.37;;;;;;;3.08;81.68;100384.23;1757350;82;21416;-58
2022/03/25 00:26:15;;;;;;;6.90;4.67;;;;;;;3.08;81.85;100391.50;1757237;82;21074;-56
2022/03/25 00:28:44;;;;;;;6.08;4.28;;;;;;;3.09;81.86;100389.99;1757301;81;21461;-59
2022/03/25 00:31:13;;;;;;;6.28;4.42;;;;;;;3.11;81.99;100392.05;1757329;82;21000;-58
2022/03/25 00:33:49;;;;;;;6.97;4.55;;;;;;;3.14;82.07;100391.75;1765412;81;21047;-56
2022/03/25 00:36:18;;;;;;;8.50;5.00;;;;;;;3.16;82.00;100395.66;1740903;82;21173;-58
2022/03/25 00:38:48;;;;;;;6.90;4.72;;;;;;;3.14;81.87;100387.69;1757414;82;20988;-57
2022/03/25 00:41:17;;;;;;;6.53;4.67;;;;;;;3.17;81.83;100380.62;1757469;82;21043;-58
2022/03/25 00:43:46;;;;;;;7.08;4.30;;;;;;;3.21;81.80;100392.00;1757238;82;21011;-57
2022/03/25 00:46:17;;;;;;;7.08;4.90;;;;;;;3.24;81.85;100384.92;1757360;82;21091;-57
2022/03/25 00:48:47;;;;;;;7.72;4.83;;;;;;;3.28;81.91;100390.92;1757512;82;21078;-57
2022/03/25 00:51:17;;;;;;;7.12;4.70;;;;;;;3.29;81.90;100389.92;1755681;82;20992;-58
2022/03/25 00:53:50;;;;;;;8.23;4.65;;;;;;;3.28;81.79;100390.42;1744036;81;21055;-57
2022/03/25 00:56:20;;;;;;;6.45;4.10;;;;;;;3.29;81.77;100400.75;1744166;81;21478;-56
2022/03/25 00:58:50;;;;;;;6.97;4.90;;;;;;;3.28;81.81;100408.02;1758280;81;20996;-56
2022/03/25 01:01:19;;;;;;;7.47;4.75;;;;;;;3.27;81.75;100418.50;1744138;82;21440;-57
2022/03/25 01:03:49;;;;;;;9.30;5.62;;;;;;;3.26;81.71;100417.30;1743900;82;21436;-58
2022/03/25 01:06:21;;;;;;;9.75;5.70;;;;;;;3.27;81.70;100419.86;1743985;81;21087;-56
2022/03/25 01:08:51;;;;;;;9.75;6.20;;;;;;;3.27;81.65;100424.42;1744165;82;21020;-57
2022/03/25 01:11:20;;;;;;;11.38;6.50;;;;;;;3.23;81.56;100422.48;1743908;82;21437;-56
2022/03/25 01:13:50;;;;;;;11.25;6.65;;;;;;;3.19;81.72;100433.26;1744102;82;21060;-57
2022/03/25 01:16:19;;;;;;;11.68;7.10;;;;;;;3.19;81.87;100427.84;1743991;82;21089;-58
2022/03/25 01:18:50;;;;;;;13.65;7.00;;;;;;;3.20;81.99;100434.96;1731083;82;21145;-57
2022/03/25 01:21:19;;;;;;;12.35;6.80;;;;;;;3.21;82.07;100439.38;1730992;83;21080;-56
2022/03/25 01:23:50;;;;;;;13.50;7.37;;;;;;;3.21;82.21;100431.25;1730779;83;21078;-56
2022/03/25 01:26:19;;;;;;;14.53;7.62;;;;;;;3.18;82.34;100433.77;1730989;83;21072;-56
2022/03/25 01:28:49;;;;;;;14.38;7.95;;;;;;;3.17;82.47;100432.05;1730918;83;21032;-57
2022/03/25 01:31:18;;;;;;;11.85;7.05;;;;;;;3.17;82.57;100440.17;1730968;82;21012;-58
2022/03/25 01:33:48;;;;;;;15.70;7.87;;;;;;;3.16;82.73;100439.83;1730724;83;21052;-57
2022/03/25 01:36:19;;;;;;;16.73;7.78;;;;;;;3.13;82.77;100451.45;1733976;81;21020;-57
2022/03/25 01:38:49;;;;;;;16.82;8.95;;;;;;;3.12;83.00;100457.87;1743967;82;21424;-57
2022/03/25 01:41:19;;;;;;;16.70;8.90;;;;;;;3.14;83.19;100468.90;1743977;82;21012;-57
2022/03/25 01:43:57;;;;;;;17.98;10.00;;;;;;;3.16;83.20;100471.45;1743879;81;21012;-56
2022/03/25 01:46:27;;;;;;;17.82;10.10;;;;;;;3.16;83.39;100472.31;1744132;82;21516;-57
2022/03/25 01:48:57;;;;;;;20.30;10.65;;;;;;;3.22;83.46;100482.20;1701784;84;21087;-57
2022/03/25 01:51:34;;;;;;;20.48;10.93;;;;;;;3.23;83.45;100483.90;1701920;84;21095;-56
2022/03/25 01:54:19;;;;;;;22.25;11.43;;;;;;;3.25;83.44;100485.96;1699652;84;21044;-57
2022/03/25 01:56:55;;;;;;;20.08;10.58;;;;;;;3.28;83.51;100489.25;1699637;84;21038;-57
2022/03/25 01:59:24;;;;;;;21.40;11.57;;;;;;;3.27;83.53;100496.17;1699651;84;21044;-57
2022/03/25 02:01:55;;;;;;;21.40;11.15;;;;;;;3.23;83.41;100501.50;1699255;84;21075;-56
2022/03/25 02:04:25;;;;;;;20.75;10.60;;;;;;;3.19;83.52;100503.15;1699634;84;21129;-57
2022/03/25 02:06:57;;;;;;;23.30;11.20;;;;;;;3.18;83.59;100505.50;1721540;82;21103;-57
2022/03/25 02:09:28;;;;;;;22.85;11.40;;;;;;;3.21;83.74;100517.89;1752074;82;21043;-57
2022/03/25 02:12:04;;;;;;;22.77;12.23;;;;;;;3.22;83.83;100514.69;1751950;81;21439;-57
2022/03/25 02:14:33;;;;;;;26.60;11.75;;;;;;;3.23;83.85;100521.31;1751826;81;21015;-57
2022/03/25 02:17:05;;;;;;;24.98;13.15;;;;;;;3.24;83.87;100519.45;1752012;81;21007;-56
2022/03/25 02:19:36;;;;;;;22.75;13.00;;;;;;;3.25;83.92;100519.80;1752149;82;21023;-58
2022/03/25 02:22:08;;;;;;;26.87;13.30;;;;;;;3.26;83.96;100519.69;1620337;88;21097;-58
2022/03/25 02:24:38;;;;;;;26.90;14.63;;;;;;;3.27;84.02;100526.81;1620415;88;21140;-57
2022/03/25 02:27:11;;;;;;;28.40;14.35;;;;;;;3.27;84.10;100529.52;1620462;87;21093;-57
2022/03/25 02:29:42;;;;;;;26.93;14.38;;;;;;;3.27;84.10;100543.56;1599725;88;21016;-57
2022/03/25 02:32:12;;;;;;;25.43;13.88;;;;;;;3.27;84.13;100547.62;1620253;88;21246;-58
2022/03/25 02:34:41;;;;;;;24.63;14.50;;;;;;;3.30;84.14;100541.91;1620287;87;21099;-57
2022/03/25 02:37:10;;;;;;;30.37;15.38;;;;;;;3.29;84.16;100545.12;1620234;88;21091;-57
2022/03/25 02:39:41;;;;;;;28.42;15.70;;;;;;;3.28;84.15;100549.33;1637909;85;21030;-57
2022/03/25 02:42:12;;;;;;;29.82;16.20;;;;;;;3.29;84.21;100557.80;1752015;82;21044;-57
2022/03/25 02:44:43;;;;;;;30.02;15.83;;;;;;;3.31;84.26;100562.08;1733438;82;21024;-57
2022/03/25 02:47:14;;;;;;;31.57;16.25;;;;;;;3.36;84.33;100565.69;1751895;82;21059;-57
2022/03/25 02:49:44;;;;;;;31.17;16.30;;;;;;;3.36;84.27;100573.31;1751910;82;21023;-56
2022/03/25 02:52:13;;;;;;;32.23;15.80;;;;;;;3.37;84.32;100573.67;1758432;81;21043;-57
2022/03/25 02:54:43;;;;;;;32.58;17.20;;;;;;;3.39;84.42;100579.80;1754090;82;21011;-57
2022/03/25 02:57:13;;;;;;;31.00;15.93;;;;;;;3.41;84.43;100584.56;1754061;82;21012;-57
2022/03/25 02:59:42;;;;;;;31.35;16.70;;;;;;;3.44;84.38;100582.91;1753960;80;21089;-57
2022/03/25 03:02:12;;;;;;;29.67;17.40;;;;;;;3.46;84.37;100590.39;1754239;82;21071;-57
2022/03/25 03:04:43;;;;;;;33.55;16.67;;;;;;;3.48;84.42;100588.39;1754089;81;21040;-57
2022/03/25 03:07:12;;;;;;;34.13;18.60;;;;;;;3.51;84.42;100596.72;1754076;82;21032;-57
2022/03/25 03:09:44;;;;;;;35.65;18.75;;;;;;;3.53;84.43;100596.57;1754194;82;21063;-56
2022/03/25 03:12:15;;;;;;;31.50;17.62;;;;;;;3.57;84.35;100604.76;1753967;81;21404;-56
2022/03/25 03:14:45;;;;;;;34.30;18.75;;;;;;;3.57;84.37;100597.98;1754072;82;21003;-57
2022/03/25 03:17:15;;;;;;;37.38;18.77;;;;;;;3.59;84.35;100606.31;1754116;80;21019;-57
2022/03/25 03:19:46;;;;;;;32.67;17.37;;;;;;;3.59;84.38;100607.67;1702086;84;21105;-57
2022/03/25 03:22:20;;;;;;;30.00;17.40;;;;;;;3.61;84.29;100611.59;1702010;84;21023;-57
2022/03/25 03:24:51;;;;;;;30.77;16.23;;;;;;;3.61;84.06;100607.02;1701740;84;21059;-57
2022/03/25 03:27:20;;;;;;;29.70;17.73;;;;;;;3.59;83.68;100608.17;1701882;84;21095;-58
2022/03/25 03:29:49;;;;;;;32.10;18.07;;;;;;;3.56;83.64;100620.16;1702140;84;21036;-57
2022/03/25 03:32:18;;;;;;;31.05;17.77;;;;;;;3.56;83.17;100619.30;1702175;84;21055;-58
2022/03/25 03:34:47;;;;;;;29.57;17.62;;;;;;;3.57;83.07;100618.30;1701882;84;21059;-58
2022/03/25 03:37:17;;;;;;;31.48;17.75;;;;;;;3.60;82.84;100630.20;1713496;82;21059;-59
2022/03/25 03:39:46;;;;;;;30.08;17.05;;;;;;;3.58;82.63;100636.27;1754088;82;21047;-58
2022/03/25 03:42:15;;;;;;;32.98;18.48;;;;;;;3.57;82.54;100635.41;1754035;81;21012;-57
2022/03/25 03:44:44;;;;;;;33.38;17.82;;;;;;;3.57;82.41;100642.18;1754011;82;21024;-58
2022/03/25 03:47:14;;;;;;;32.48;18.23;;;;;;;3.55;82.28;100649.60;1754000;82;21443;-56
2022/03/25 03:49:43;;;;;;;31.40;17.85;;;;;;;3.55;82.16;100642.83;1753906;80;21055;-57
2022/03/25 03:52:12;;;;;;;30.17;17.75;;;;;;;3.57;82.06;100651.66;1752420;81;21044;-57
2022/03/25 03:54:41;;;;;;;33.83;18.70;;;;;;;3.57;81.96;100654.88;1743924;82;21023;-58
2022/03/25 03:57:31;;;;;;;32.45;17.17;;;;;;;3.56;81.82;100657.23;1743857;81;21038;-56
2022/03/25 04:00:00;;;;;;;33.83;18.40;;;;;;;3.54;81.52;100656.02;1743965;81;21564;-56
2022/03/25 04:02:29;;;;;;;34.27;18.12;;;;;;;3.57;81.48;100663.86;1743998;82;21020;-57
2022/03/25 04:04:58;;;;;;;31.27;17.70;;;;;;;3.60;81.39;100662.21;1744081;81;21020;-58
2022/03/25 04:07:28;;;;;;;34.78;17.95;;;;;;;3.65;81.30;100669.90;1744312;81;21008;-57
2022/03/25 04:09:58;;;;;;;31.90;18.05;;;;;;;3.67;81.04;100676.02;1743898;82;21051;-57
2022/03/25 04:12:28;;;;;;;34.15;17.42;;;;;;;3.66;80.72;100685.16;1743884;82;21063;-57
2022/03/25 04:14:58;;;;;;;29.95;17.25;;;;;;;3.67;80.38;100693.64;1701836;84;21032;-58
2022/03/25 04:17:27;;;;;;;30.68;16.75;;;;;;;3.68;80.12;100693.48;1701661;84;21037;-57
2022/03/25 04:19:58;;;;;;;31.07;16.25;;;;;;;3.70;79.91;100700.12;1619830;88;21090;-57
2022/03/25 04:22:28;;;;;;;30.25;15.95;;;;;;;3.71;79.52;100701.83;1619951;88;21071;-58
2022/03/25 04:24:58;;;;;;;27.87;16.23;;;;;;;3.72;79.10;100706.25;1569471;91;21580;-58
2022/03/25 04:27:28;;;;;;;25.60;14.68;;;;;;;3.72;78.58;100696.77;1569845;91;21087;-58
2022/03/25 04:29:58;;;;;;;22.55;13.00;;;;;;;3.72;78.00;100699.47;1550152;91;21103;-56
2022/03/25 04:32:28;;;;;;;24.27;13.60;;;;;;;3.71;77.16;100705.39;1579722;88;21524;-57
2022/03/25 04:34:58;;;;;;;28.10;14.13;;;;;;;3.68;76.58;100714.31;1620097;88;21081;-56
2022/03/25 04:37:28;;;;;;;26.57;15.08;;;;;;;3.68;76.21;100719.23;1636566;84;21084;-57
2022/03/25 04:39:57;;;;;;;26.87;13.88;;;;;;;3.66;75.97;100723.09;1701705;84;21079;-57
2022/03/25 04:42:28;;;;;;;23.65;13.35;;;;;;;3.68;75.94;100725.16;1702064;84;21592;-57
2022/03/25 04:44:57;;;;;;;21.35;12.33;;;;;;;3.70;75.85;100736.20;1701937;84;21530;-57
2022/03/25 04:47:27;;;;;;;21.52;11.78;;;;;;;3.71;75.28;100743.33;1701944;84;21024;-57
2022/03/25 04:49:57;;;;;;;18.85;10.93;;;;;;;3.72;74.89;100744.19;1728907;82;21063;-57
2022/03/25 04:52:27;;;;;;;20.43;11.65;;;;;;;3.75;74.81;100745.25;1745301;81;21428;-56
2022/03/25 04:54:58;;;;;;;18.45;10.70;;;;;;;3.78;74.55;100754.45;1757132;81;21027;-58
2022/03/25 04:57:27;;;;;;;17.20;10.45;;;;;;;3.79;73.86;100752.95;1756986;82;21059;-56
2022/03/25 04:59:59;;;;;;;15.00;8.75;;;;;;;3.80;73.59;100756.01;1757132;82;21455;-56
2022/03/25 05:02:28;;;;;;;18.65;9.83;;;;;;;3.84;72.61;100767.41;1757093;82;21011;-57
2022/03/25 05:04:58;;;;;;;14.75;8.45;;;;;;;3.85;72.37;100767.77;1757175;82;21475;-56
2022/03/25 05:07:27;;;;;;;17.80;9.50;;;;;;;3.85;71.80;100769.63;1757170;80;21424;-57
2022/03/25 05:09:58;;;;;;;17.77;9.53;;;;;;;3.85;71.62;100770.48;1757146;82;21162;-57
2022/03/25 05:12:30;;;;;;;15.05;8.65;;;;;;;3.86;71.33;100774.05;1757029;81;20984;-56
2022/03/25 05:14:59;;;;;;;16.52;9.23;;;;;;;3.83;70.61;100778.75;1757249;82;21011;-57
2022/03/25 05:17:29;;;;;;;14.58;8.15;;;;;;;3.86;70.65;100784.89;1757429;81;21059;-57
2022/03/25 05:19:58;;;;;;;17.67;8.53;;;;;;;3.87;70.31;100787.95;1757233;82;20983;-57
2022/03/25 05:22:29;;;;;;;13.78;8.15;;;;;;;3.90;70.04;100793.08;1757292;81;21024;-58
2022/03/25 05:24:59;;;;;;;12.58;7.80;;;;;;;3.93;69.87;100797.75;1765336;81;21031;-57
2022/03/25 05:27:28;;;;;;;14.65;8.38;;;;;;;3.94;69.68;100808.09;1757533;82;21047;-58
2022/03/25 05:29:58;;;;;;;17.35;8.55;;;;;;;3.91;69.62;100808.38;1757444;82;21043;-57
2022/03/25 05:32:28;;;;;;;14.70;8.68;;;;;;;3.91;69.72;100813.30;1757432;82;21428;-57
2022/03/25 05:34:57;;;;;;;16.15;8.50;;;;;;;3.93;69.56;100816.72;1757751;80;21443;-59
2022/03/25 05:37:26;;;;;;;15.00;8.70;;;;;;;3.91;69.39;100822.79;1757343;82;21085;-57
2022/03/25 05:39:55;;;;;;;13.08;7.65;;;;;;;3.90;69.52;100828.33;1757274;82;21479;-56
2022/03/25 05:42:25;;;;;;;14.95;8.25;;;;;;;3.87;69.09;100835.39;1757405;82;21015;-56
2022/03/25 05:44:55;;;;;;;16.32;9.48;;;;;;;3.86;69.22;100835.89;1757186;82;21000;-58
2022/03/25 05:47:25;;;;;;;17.27;9.33;;;;;;;3.84;69.19;100841.95;1757511;82;21051;-57
2022/03/25 05:49:57;;;;;;;15.15;9.35;;;;;;;3.80;69.68;100843.23;1757218;82;21013;-57
2022/03/25 05:52:27;;;;;;;15.30;9.18;;;;;;;3.79;69.96;100846.95;1757200;82;21513;-58
2022/03/25 05:54:56;;;;;;;17.85;9.88;;;;;;;3.76;70.05;100859.43;1765365;81;21051;-58
2022/03/25 05:57:25;;;;;;;14.75;8.95;;;;;;;3.74;70.27;100863.64;1757304;82;21007;-57
2022/03/25 05:59:58;;;;;;;13.83;8.45;;;;;;;3.74;70.29;100864.14;1757319;82;20979;-59
2022/03/25 06:02:28;;;;;;;14.95;8.38;;;;;;;3.74;70.46;100866.34;1741438;82;21485;-58
2022/03/25 06:04:59;;;;;;;14.47;8.55;;;;;;;3.75;70.65;100866.70;1757475;82;21082;-58
2022/03/25 06:07:38;;;;;;;16.17;9.33;;;;;;;3.78;70.48;100869.62;1757289;82;21454;-57
2022/03/25 06:10:09;;;;;;;15.58;9.08;;;;;;;3.80;70.44;100877.12;1757263;81;21067;-57
2022/03/25 06:12:39;;;;;;;15.30;8.90;;;;;;;3.80;70.33;100875.27;1736504;82;20992;-57
2022/03/25 06:15:09;;;;;;;13.95;8.78;;;;;;;3.82;70.14;100875.13;1713002;82;21428;-57
2022/03/25 06:17:45;;;;;;;20.57;8.55;;;;;;;3.80;70.22;100882.54;1736361;82;21075;-57
2022/03/25 06:20:17;;;;;;;15.08;8.18;;;;;;;3.83;70.01;100880.90;1736424;82;21285;-57
2022/03/25 06:22:49;;;;;;;16.17;8.78;;;;;;;3.84;70.16;100879.90;1736512;82;21024;-58
2022/03/25 06:25:21;;;;;;;18.48;8.43;;;;;;;3.89;70.19;100879.47;1736585;82;21063;-57
2022/03/25 06:27:58;;;;;;;13.25;8.05;;;;;;;3.90;70.10;100890.67;1736404;82;21086;-57
2022/03/25 06:30:34;;;;;;;14.00;8.03;;;;;;;3.91;70.26;100886.99;1743798;82;21091;-57
2022/03/25 06:33:09;;;;;;;14.15;8.25;;;;;;;3.95;70.29;100887.92;1757712;80;21020;-58
2022/03/25 06:35:39;;;;;;;15.10;8.50;;;;;;;3.97;70.17;100896.77;1757193;81;21062;-57
2022/03/25 06:38:09;;;;;;;15.95;7.75;;;;;;;4.00;70.11;100895.63;1757240;82;21063;-56
2022/03/25 06:40:39;;;;;;;20.23;7.50;;;;;;;4.04;70.08;100897.91;1740430;82;20987;-58
2022/03/25 06:43:08;;;;;;;12.50;7.45;;;;;;;4.08;69.86;100899.83;1757489;82;21048;-58
2022/03/25 06:45:38;;;;;;;15.65;7.80;;;;;;;4.12;69.84;100895.83;1757489;81;21015;-58
2022/03/25 06:48:08;;;;;;;11.25;7.22;;;;;;;4.16;69.83;100895.89;1757575;80;20983;-57
2022/03/25 06:50:38;;;;;;;13.55;7.92;;;;;;;4.18;69.68;100902.03;1765324;80;21047;-57
2022/03/25 06:53:08;;;;;;;12.45;6.97;;;;;;;4.21;69.45;100904.95;1755737;82;21031;-58
2022/03/25 06:55:40;;;;;;;13.40;7.53;;;;;;;4.23;69.56;100898.39;1733653;82;21456;-57
2022/03/25 06:58:11;;;;;;;11.83;7.50;;;;;;;4.30;69.40;100906.80;1733800;82;21028;-57
2022/03/25 07:00:42;;;;;;;13.58;7.45;;;;;;;4.35;69.09;100907.22;1744054;82;21714;-57
2022/03/25 07:03:14;;;;;;;15.43;7.28;;;;;;;4.40;68.70;100911.20;1758040;81;21071;-57
2022/03/25 07:05:44;;;;;;;17.92;8.30;;;;;;;4.46;68.51;100906.55;1744146;82;21095;-58
2022/03/25 07:08:14;;;;;;;12.65;7.35;;;;;;;4.53;68.39;100908.19;1744127;82;21039;-57
2022/03/25 07:10:46;;;;;;;11.28;6.75;;;;;;;4.60;68.23;100915.27;1744104;82;21011;-57
2022/03/25 07:13:17;;;;;;;11.10;6.45;;;;;;;4.66;67.94;100918.25;1744132;81;21214;-58
2022/03/25 07:15:46;;;;;;;11.18;6.58;;;;;;;4.72;67.20;100919.02;1744181;81;21451;-57
2022/03/25 07:18:16;;;;;;;9.73;6.37;;;;;;;4.77;66.73;100916.72;1744126;81;21055;-58
2022/03/25 07:20:46;;;;;;;11.97;7.00;;;;;;;4.83;65.12;100917.98;1743939;82;21061;-58
2022/03/25 07:23:17;;;;;;;10.00;6.33;;;;;;;4.90;63.84;100920.96;1743912;81;21008;-57
2022/03/25 07:25:46;;;;;;;12.07;6.25;;;;;;;4.96;63.36;100924.44;1744162;82;21048;-56
2022/03/25 07:28:15;;;;;;;12.20;7.00;;;;;;;5.00;63.15;100925.35;1743935;82;21028;-57
2022/03/25 07:30:45;;;;;;;16.37;7.17;;;;;;;5.05;62.18;100933.05;1744185;82;21075;-56
2022/03/25 07:33:14;;;;;;;12.90;7.15;;;;;;;5.09;61.35;100926.31;1743934;82;21048;-59
2022/03/25 07:35:44;;;;;;;12.05;6.97;;;;;;;5.12;60.72;100923.80;1743642;82;21490;-57
2022/03/25 07:38:13;;;;;;;13.90;7.25;;;;;;;5.16;60.50;100927.93;1743917;82;21023;-57
2022/03/25 07:40:44;;;;;;;12.53;6.15;;;;;;;5.18;60.40;100928.13;1743875;82;21032;-58
2022/03/25 07:43:14;;;;;;;10.58;6.20;;;;;;;5.22;60.87;100930.08;1743914;82;21016;-57
2022/03/25 07:45:44;;;;;;;11.95;7.47;;;;;;;5.28;61.17;100938.48;1743981;82;21008;-58
2022/03/25 07:48:14;;;;;;;12.65;7.22;;;;;;;5.33;61.43;100934.81;1744161;82;21436;-57
2022/03/25 07:50:43;;;;;;;11.83;6.70;;;;;;;5.37;61.42;100935.36;1743912;81;21024;-57
2022/03/25 07:53:12;;;;;;;10.93;6.60;;;;;;;5.41;61.43;100938.98;1743862;81;21056;-57
2022/03/25 07:55:44;;;;;;;12.28;6.90;;;;;;;5.46;61.19;100944.47;1757133;82;21043;-58
2022/03/25 07:58:12;;;;;;;11.40;6.78;;;;;;;5.52;61.39;100939.79;1757370;82;21481;-58
2022/03/25 08:00:44;;;;;;;11.80;6.65;;;;;;;5.67;61.56;100940.48;1757396;82;21054;-57
2022/03/25 08:03:14;;;;;;;14.33;7.53;;;;;;;6.06;61.36;100943.48;1757410;82;21432;-58
2022/03/25 08:05:44;;;;;;;12.37;7.30;;;;;;;6.65;60.71;100942.33;1678584;85;21071;-58
2022/03/25 08:08:15;;;;;;;11.60;6.45;;;;;;;7.11;60.08;100947.55;1597437;90;21084;-57
2022/03/25 08:13:23;;;;;;;10.75;6.30;;;;;;;8.20;59.03;100943.02;1597880;90;21023;-58
2022/03/25 08:15:53;;;;;;;9.45;6.50;;;;;;;8.73;57.19;100949.91;1597716;90;21511;-57
2022/03/25 08:18:25;;;;;;;12.30;7.50;;;;;;;9.04;56.26;100951.39;1536441;93;21091;-58
2022/03/25 08:20:57;;;;;;;15.10;7.47;;;;;;;9.23;54.96;100954.28;1536496;93;21652;-58
2022/03/25 08:29:03;;;;;;;13.48;6.60;;;;;;;9.96;53.12;100958.08;1594255;89;21123;-59
2022/03/25 08:31:34;;;;;;;11.28;6.75;;;;;;;10.27;52.79;100952.09;1669241;85;21095;-58
2022/03/25 08:34:07;;;;;;;10.30;6.60;;;;;;;10.52;51.08;100950.05;1692422;85;21490;-58
2022/03/25 08:36:37;;;;;;;12.33;6.87;;;;;;;10.64;51.04;100954.05;1692126;85;21462;-58
2022/03/25 08:39:07;;;;;;;11.15;6.90;;;;;;;10.81;49.58;100949.27;1692250;83;21071;-59
2022/03/25 08:41:37;;;;;;;13.50;7.33;;;;;;;10.82;49.52;100953.72;1692356;85;21050;-59
2022/03/25 08:44:10;;;;;;;12.20;6.67;;;;;;;10.84;49.16;100954.38;1752616;82;21030;-57
2022/03/25 08:46:39;;;;;;;10.48;7.03;;;;;;;10.90;50.17;100955.00;1757346;82;21027;-57
2022/03/25 08:49:11;;;;;;;16.42;7.10;;;;;;;11.07;48.80;100948.87;1757404;82;21463;-58
2022/03/25 08:51:40;;;;;;;10.82;6.87;;;;;;;11.16;47.76;100957.86;1757306;82;21043;-57
2022/03/25 08:54:09;;;;;;;16.07;6.95;;;;;;;11.14;48.03;100957.19;1757172;81;21482;-57
2022/03/25 08:56:39;;;;;;;11.50;7.10;;;;;;;11.13;48.05;100954.12;1757317;82;21003;-57
2022/03/25 08:59:09;;;;;;;9.30;6.60;;;;;;;11.15;47.88;100962.50;1757566;82;21047;-57
2022/03/25 09:01:39;;;;;;;11.05;7.15;;;;;;;11.21;48.26;100954.88;1757290;80;21480;-58
2022/03/25 09:04:08;;;;;;;9.50;6.58;;;;;;;11.21;46.80;100965.00;1757283;82;21440;-59
2022/03/25 09:06:38;;;;;;;14.30;7.10;;;;;;;11.01;46.37;100966.04;1765715;81;21027;-59
2022/03/25 09:09:09;;;;;;;10.75;6.53;;;;;;;10.83;46.75;100967.75;1757286;81;21466;-58
2022/03/25 09:11:40;;;;;;;13.08;6.60;;;;;;;10.67;47.57;100968.75;1757224;82;21030;-58
2022/03/25 09:14:11;;;;;;;10.60;7.40;;;;;;;10.55;47.86;100966.63;1757321;81;20984;-57
2022/03/25 09:16:44;;;;;;;13.53;7.50;;;;;;;10.36;47.10;100964.69;1757156;82;21047;-57
2022/03/25 09:19:15;;;;;;;9.95;6.58;;;;;;;10.24;47.18;100962.55;1757365;81;20976;-57
2022/03/25 09:21:45;;;;;;;9.85;5.65;;;;;;;10.10;47.28;100958.16;1757391;81;21443;-57
2022/03/25 09:24:15;;;;;;;8.23;5.90;;;;;;;9.98;47.39;100968.34;1757442;81;20999;-57
2022/03/25 09:26:45;;;;;;;10.70;6.10;;;;;;;9.91;47.40;100971.46;1757306;82;21016;-59
2022/03/25 09:29:15;;;;;;;9.50;5.83;;;;;;;9.83;48.32;100975.94;1757213;82;21031;-59
2022/03/25 09:31:45;;;;;;;10.50;5.72;;;;;;;9.75;48.35;100978.72;1740952;82;21019;-58
2022/03/25 09:37:05;;;;;;;8.00;5.22;;;;;;;9.65;48.83;100972.58;1757446;81;21007;-57
2022/03/25 09:39:34;;;;;;;8.20;5.35;;;;;;;9.63;48.83;100975.16;1757186;82;21011;-58
2022/03/25 09:42:05;;;;;;;9.83;5.40;;;;;;;9.59;48.50;100974.66;1757607;82;21677;-59
2022/03/25 09:44:39;;;;;;;8.45;5.45;;;;;;;9.56;47.42;100976.89;1756713;81;21463;-58
2022/03/25 09:47:10;;;;;;;8.30;5.28;;;;;;;9.49;47.53;100982.22;1757148;82;21043;-57
2022/03/25 09:49:40;;;;;;;9.35;4.97;;;;;;;9.40;47.10;100973.70;1757136;80;21461;-56
2022/03/25 09:52:09;;;;;;;8.25;5.12;;;;;;;9.26;47.32;100974.44;1757416;80;21533;-57
2022/03/25 09:54:43;;;;;;;8.20;4.62;;;;;;;9.17;47.92;100978.56;1755019;81;21079;-56
2022/03/25 09:57:12;;;;;;;8.25;5.10;;;;;;;9.13;47.68;100976.34;1740604;82;21067;-58
2022/03/25 09:59:43;;;;;;;8.60;4.95;;;;;;;9.14;46.91;100977.54;1757137;82;21534;-58
2022/03/25 10:02:12;;;;;;;7.97;5.22;;;;;;;9.13;46.93;100979.08;1757360;80;21008;-58
2022/03/25 10:04:44;;;;;;;8.15;5.00;;;;;;;9.10;47.10;100973.93;1757237;82;21023;-58
2022/03/25 10:07:20;;;;;;;8.90;5.15;;;;;;;9.09;46.90;100978.55;1740884;82;21055;-58
2022/03/25 10:10:12;;;;;;;7.72;5.05;;;;;;;9.09;47.23;100969.48;1736632;82;21523;-58
2022/03/25 10:12:46;;;;;;;11.63;5.40;;;;;;;9.08;46.26;100974.11;1713344;82;21079;-57
2022/03/25 10:15:28;;;;;;;8.88;4.87;;;;;;;9.02;46.85;100979.41;1712384;82;21210;-58
2022/03/25 10:18:06;;;;;;;8.18;4.90;;;;;;;9.03;46.31;100986.08;1712502;82;21039;-58
2022/03/25 10:20:41;;;;;;;6.08;4.17;;;;;;;9.02;46.26;100974.80;1713003;82;21057;-57
2022/03/25 10:23:18;;;;;;;8.43;4.70;;;;;;;9.01;46.51;100983.17;1736440;82;21055;-59
2022/03/25 10:26:00;;;;;;;8.18;5.33;;;;;;;9.03;46.87;100979.24;1736562;82;21067;-58
2022/03/25 10:28:42;;;;;;;8.13;5.22;;;;;;;9.05;46.75;100979.92;1670438;85;21122;-58
2022/03/25 10:31:13;;;;;;;7.78;4.95;;;;;;;9.08;46.33;100983.67;1678548;85;21075;-58
2022/03/25 10:34:01;;;;;;;8.53;5.20;;;;;;;9.01;46.27;100978.56;1671338;85;21523;-57
2022/03/25 10:36:29;;;;;;;7.45;4.87;;;;;;;8.97;46.94;100986.77;1679004;85;21495;-58
2022/03/25 10:39:11;;;;;;;7.42;4.75;;;;;;;9.01;47.17;100987.27;1679003;85;21007;-58
2022/03/25 10:41:50;;;;;;;7.58;4.70;;;;;;;9.05;47.15;100975.81;1678809;85;21056;-59
2022/03/25 10:44:20;;;;;;;8.10;4.75;;;;;;;9.11;46.11;100979.77;1678694;85;21503;-56
2022/03/25 10:46:50;;;;;;;6.58;4.53;;;;;;;9.08;45.66;100980.94;1705269;82;21066;-57
2022/03/25 10:49:20;;;;;;;8.28;5.22;;;;;;;9.07;45.93;100984.70;1757402;82;21090;-57
2022/03/25 10:51:58;;;;;;;6.58;4.33;;;;;;;9.08;45.78;100977.35;1757167;81;21071;-56
2022/03/25 10:54:29;;;;;;;7.67;4.97;;;;;;;9.09;46.25;100986.74;1738805;81;21083;-58
2022/03/25 10:57:04;;;;;;;7.40;5.08;;;;;;;9.14;46.38;100981.64;1743945;81;21020;-58
2022/03/25 10:59:35;;;;;;;9.60;4.83;;;;;;;9.18;45.85;100977.53;1744377;82;20988;-57
2022/03/25 11:02:07;;;;;;;8.45;4.97;;;;;;;9.18;45.62;100981.63;1758590;81;21056;-58
2022/03/25 11:04:40;;;;;;;8.05;5.30;;;;;;;9.16;45.90;100970.02;1757959;81;21467;-57
2022/03/25 11:07:10;;;;;;;9.43;5.58;;;;;;;9.18;46.21;100978.90;1743874;81;21028;-57
2022/03/25 11:09:41;;;;;;;13.68;5.65;;;;;;;9.18;46.20;100975.31;1743964;81;21004;-58
2022/03/25 11:12:12;;;;;;;7.55;5.10;;;;;;;9.17;46.25;100967.62;1744061;82;21016;-58
2022/03/25 11:14:41;;;;;;;10.32;5.03;;;;;;;9.18;46.00;100972.58;1744034;82;21091;-58
2022/03/25 11:17:11;;;;;;;8.40;4.72;;;;;;;9.19;45.81;100975.65;1743882;82;21035;-59
2022/03/25 11:19:42;;;;;;;7.75;4.80;;;;;;;9.19;45.75;100973.77;1743833;81;21028;-57
2022/03/25 11:22:12;;;;;;;7.90;5.15;;;;;;;9.18;45.44;100968.47;1733730;82;21016;-57
2022/03/25 11:24:52;;;;;;;6.12;4.35;;;;;;;9.20;45.81;100974.11;1744107;82;21111;-58
2022/03/25 11:27:28;;;;;;;8.68;4.95;;;;;;;9.23;46.12;100974.78;1744064;82;20981;-56
2022/03/25 11:30:05;;;;;;;7.50;5.00;;;;;;;9.29;46.15;100972.20;1743940;82;21276;-57
2022/03/25 11:32:34;;;;;;;7.17;5.00;;;;;;;9.32;45.60;100973.73;1744486;81;21008;-57
2022/03/25 11:35:08;;;;;;;11.75;5.70;;;;;;;9.27;45.45;100969.30;1744186;81;21067;-58
2022/03/25 11:37:37;;;;;;;9.03;5.03;;;;;;;9.25;45.55;100967.26;1744074;81;21079;-59
2022/03/25 11:40:26;;;;;;;11.08;4.92;;;;;;;9.23;45.67;100968.80;1744173;81;21507;-58
2022/03/25 11:42:59;;;;;;;6.05;4.40;;;;;;;9.24;45.36;100969.66;1743906;82;21012;-58
2022/03/25 11:45:34;;;;;;;9.20;5.00;;;;;;;9.26;45.49;100971.19;1743969;81;21052;-57
2022/03/25 11:48:11;;;;;;;7.28;4.90;;;;;;;9.28;45.60;100973.75;1734291;82;21071;-57
2022/03/25 11:50:46;;;;;;;9.08;5.10;;;;;;;9.32;45.60;100965.53;1733918;82;21020;-57
2022/03/25 11:53:24;;;;;;;9.28;4.87;;;;;;;9.33;45.61;100965.87;1743974;82;21099;-58